createdAt,value
2018-04-06T00:00:49.660Z,45.94
2018-04-06T00:01:49.617Z,45.75
2018-04-06T00:02:49.584Z,45.84
2018-04-06T00:03:49.532Z,46.04
2018-04-06T00:04:49.484Z,45.56
2018-04-06T00:05:49.441Z,46.23
2018-04-06T00:06:49.398Z,45.75
2018-04-06T00:07:49.352Z,45.84
2018-04-06T00:08:49.314Z,46.04
2018-04-06T00:09:49.265Z,45.84
2018-04-06T00:10:49.235Z,45.75
2018-04-06T00:11:49.182Z,45.73
2018-04-06T00:12:49.141Z,45.65
2018-04-06T00:13:49.099Z,46.14
2018-04-06T00:14:49.056Z,45.94
2018-04-06T00:15:49.018Z,46.04
2018-04-06T00:16:48.972Z,45.94
2018-04-06T00:17:48.931Z,46.23
2018-04-06T00:18:48.883Z,46.04
2018-04-06T00:19:48.840Z,45.56
2018-04-06T00:49:52.773Z,48.97
2018-04-06T00:50:52.679Z,48.30
2018-04-06T00:52:46.493Z,49.07
2018-04-06T00:53:46.433Z,48.69
2018-04-06T00:55:39.251Z,48.88
2018-04-06T00:56:39.210Z,48.69
2018-04-06T00:58:32.014Z,48.40
2018-04-06T00:59:31.958Z,48.21
2018-04-06T01:01:24.794Z,47.82
2018-04-06T01:02:24.727Z,47.92
2018-04-06T01:03:24.677Z,47.92
2018-04-06T01:04:24.637Z,47.85
2018-04-06T01:05:24.594Z,47.46
2018-04-06T01:06:24.544Z,47.46
2018-04-06T01:07:24.509Z,47.08
2018-04-06T01:08:24.458Z,47.27
2018-04-06T01:09:24.415Z,46.88
2018-04-06T01:10:24.373Z,47.17
2018-04-06T01:11:24.330Z,47.08
2018-04-06T01:12:24.282Z,46.88
2018-04-06T01:13:24.255Z,46.78
2018-04-06T01:14:24.194Z,46.88
2018-04-06T01:15:24.152Z,46.69
2018-04-06T01:16:24.111Z,46.59
2018-04-06T01:17:24.069Z,47.08
2018-04-06T01:18:24.032Z,46.59
2018-04-06T01:19:24.001Z,46.50
2018-04-06T01:20:23.940Z,46.59
2018-04-06T01:21:23.895Z,46.50
2018-04-06T01:22:23.855Z,46.21
2018-04-06T01:23:23.811Z,47.27
2018-04-06T01:24:23.762Z,46.50
2018-04-06T01:25:23.720Z,46.59
2018-04-06T01:26:23.688Z,46.98
2018-04-06T01:27:23.634Z,46.21
2018-04-06T01:28:23.594Z,46.50
2018-04-06T01:29:23.550Z,46.31
2018-04-06T01:30:23.505Z,46.62
2018-04-06T01:31:23.460Z,46.31
2018-04-06T01:32:23.420Z,46.21
2018-04-06T01:33:23.384Z,45.73
2018-04-06T01:34:23.332Z,46.21
2018-04-06T01:35:23.290Z,45.92
2018-04-06T01:36:23.245Z,45.83
2018-04-06T01:37:23.203Z,46.01
2018-04-06T01:38:23.158Z,45.92
2018-04-06T01:39:23.118Z,45.92
2018-04-06T01:40:23.079Z,46.59
2018-04-06T01:41:23.032Z,46.88
2018-04-06T01:42:22.989Z,46.50
2018-04-06T01:43:22.942Z,46.11
2018-04-06T01:44:22.901Z,46.21
2018-04-06T01:45:22.855Z,46.11
2018-04-06T01:46:22.813Z,46.11
2018-04-06T01:47:22.767Z,45.83
2018-04-06T01:48:22.729Z,46.14
2018-04-06T01:49:22.688Z,45.94
2018-04-06T01:50:22.640Z,46.04
2018-04-06T01:51:22.603Z,46.81
2018-04-06T01:52:22.557Z,46.01
2018-04-06T01:53:22.513Z,46.11
2018-04-06T01:54:22.471Z,46.11
2018-04-06T01:55:22.433Z,46.88
2018-04-06T01:56:22.384Z,45.83
2018-04-06T01:57:22.342Z,46.14
2018-04-06T01:58:22.303Z,45.83
2018-04-06T01:59:22.257Z,45.73
2018-04-06T02:00:22.215Z,45.65
2018-04-06T02:01:22.170Z,45.83
2018-04-06T02:02:22.129Z,45.53
2018-04-06T02:03:22.080Z,45.83
2018-04-06T02:04:22.047Z,45.83
2018-04-06T02:05:22.000Z,45.92
2018-04-06T02:06:21.957Z,46.88
2018-04-06T02:07:21.912Z,45.83
2018-04-06T02:08:21.868Z,45.63
2018-04-06T02:09:21.824Z,45.83
2018-04-06T02:10:21.780Z,46.11
2018-04-06T02:11:21.740Z,46.21
2018-04-06T02:12:21.692Z,45.83
2018-04-06T02:13:21.695Z,46.01
2018-04-06T02:14:21.605Z,45.83
2018-04-06T02:15:21.562Z,45.73
2018-04-06T02:16:21.522Z,46.01
2018-04-06T02:17:21.480Z,46.21
2018-04-06T02:18:21.432Z,45.92
2018-04-06T02:19:21.394Z,46.01
2018-04-06T02:20:21.349Z,46.01
2018-04-06T02:21:21.310Z,46.01
2018-04-06T02:22:21.285Z,46.78
2018-04-06T02:23:21.223Z,46.01
2018-04-06T02:24:21.181Z,45.92
2018-04-06T02:25:21.133Z,45.83
2018-04-06T02:26:21.090Z,45.92
2018-04-06T02:27:21.046Z,45.92
2018-04-06T02:28:28.141Z,45.63
2018-04-06T02:30:15.313Z,45.83
2018-04-06T02:31:15.265Z,45.92
2018-04-06T02:32:15.222Z,45.92
2018-04-06T02:33:15.174Z,46.11
2018-04-06T02:34:15.134Z,46.11
2018-04-06T02:35:15.090Z,46.21
2018-04-06T02:36:15.045Z,46.21
2018-04-06T02:37:15.008Z,45.83
2018-04-06T02:38:14.960Z,46.69
2018-04-06T02:39:14.916Z,46.01
2018-04-06T02:40:14.874Z,45.92
2018-04-06T02:41:14.832Z,46.21
2018-04-06T02:42:14.796Z,46.40
2018-04-06T02:43:14.751Z,46.01
2018-04-06T02:44:14.712Z,45.92
2018-04-06T02:45:14.657Z,46.21
2018-04-06T02:46:14.620Z,46.59
2018-04-06T02:47:14.572Z,46.01
2018-04-06T02:48:14.528Z,46.31
2018-04-06T02:49:14.487Z,46.21
2018-04-06T02:50:14.443Z,45.92
2018-04-06T02:51:14.402Z,45.83
2018-04-06T02:52:14.355Z,45.92
2018-04-06T02:53:14.334Z,46.31
2018-04-06T02:54:14.271Z,45.63
2018-04-06T02:55:14.239Z,45.83
2018-04-06T02:56:14.192Z,45.83
2018-04-06T02:57:14.150Z,46.01
2018-04-06T02:58:14.107Z,45.83
2018-04-06T02:59:14.061Z,45.92
2018-04-06T03:00:14.011Z,45.53
2018-04-06T03:01:13.967Z,45.92
2018-04-06T03:02:13.926Z,45.73
2018-04-06T03:03:13.902Z,45.92
2018-04-06T03:04:13.841Z,45.73
2018-04-06T03:05:13.803Z,45.83
2018-04-06T03:06:13.759Z,46.01
2018-04-06T03:07:13.714Z,45.92
2018-04-06T03:08:13.666Z,45.63
2018-04-06T03:09:13.624Z,46.78
2018-04-06T03:10:13.582Z,45.63
2018-04-06T03:11:13.537Z,45.83
2018-04-06T03:12:13.492Z,46.11
2018-04-06T03:13:13.449Z,46.21
2018-04-06T03:14:13.405Z,46.11
2018-04-06T03:15:13.365Z,45.92
2018-04-06T03:16:13.325Z,46.31
2018-04-06T03:17:13.279Z,46.01
2018-04-06T03:18:13.241Z,46.01
2018-04-06T03:19:13.190Z,45.44
2018-04-06T03:20:13.147Z,46.01
2018-04-06T03:21:13.109Z,45.92
2018-04-06T03:22:13.067Z,46.01
2018-04-06T03:23:13.022Z,45.63
2018-04-06T03:24:12.977Z,45.44
2018-04-06T03:25:12.937Z,45.63
2018-04-06T03:26:13.050Z,45.73
2018-04-06T03:27:12.850Z,45.73
2018-04-06T03:28:12.803Z,46.31
2018-04-06T03:29:12.762Z,45.92
2018-04-06T03:30:12.725Z,46.01
2018-04-06T03:31:12.674Z,45.83
2018-04-06T03:32:12.635Z,46.11
2018-04-06T03:33:12.586Z,46.21
2018-04-06T03:34:12.551Z,46.01
2018-04-06T03:35:12.516Z,45.92
2018-04-06T03:36:12.474Z,46.11
2018-04-06T03:37:12.415Z,45.92
2018-04-06T03:38:12.380Z,46.88
2018-04-06T03:39:12.335Z,46.21
2018-04-06T03:40:12.289Z,46.11
2018-04-06T03:41:12.242Z,45.83
2018-04-06T03:42:12.199Z,45.92
2018-04-06T03:43:12.158Z,46.11
2018-04-06T03:44:12.113Z,46.01
2018-04-06T03:45:12.073Z,46.01
2018-04-06T03:46:12.026Z,45.92
2018-04-06T03:47:11.983Z,46.21
2018-04-06T03:48:11.939Z,46.11
2018-04-06T03:49:11.900Z,45.73
2018-04-06T03:50:11.850Z,46.31
2018-04-06T03:51:11.814Z,46.01
2018-04-06T03:52:11.763Z,45.63
2018-04-06T03:53:11.724Z,45.44
2018-04-06T03:54:11.678Z,45.92
2018-04-06T03:55:11.639Z,45.63
2018-04-06T03:56:11.608Z,46.21
2018-04-06T03:57:11.551Z,46.11
2018-04-06T03:58:11.509Z,45.92
2018-04-06T03:59:11.466Z,45.92
2018-04-06T04:00:11.423Z,46.11
2018-04-06T04:01:11.377Z,46.01
2018-04-06T04:02:11.337Z,46.40
2018-04-06T04:03:11.291Z,45.83
2018-04-06T04:04:11.269Z,46.01
2018-04-06T04:05:11.206Z,45.92
2018-04-06T04:06:11.163Z,46.21
2018-04-06T04:07:11.121Z,45.83
2018-04-06T04:08:11.076Z,45.83
2018-04-06T04:09:11.038Z,46.11
2018-04-06T04:10:10.990Z,46.21
2018-04-06T04:11:10.953Z,46.11
2018-04-06T04:12:10.905Z,45.63
2018-04-06T04:13:10.867Z,45.83
2018-04-06T04:14:10.820Z,45.83
2018-04-06T04:15:10.776Z,46.78
2018-04-06T04:16:10.730Z,45.83
2018-04-06T04:17:10.702Z,45.63
2018-04-06T04:18:10.647Z,45.92
2018-04-06T04:19:10.602Z,46.21
2018-04-06T04:20:10.555Z,46.21
2018-04-06T04:21:10.520Z,46.21
2018-04-06T04:22:10.472Z,46.11
2018-04-06T04:23:10.436Z,45.92
2018-04-06T04:24:10.388Z,46.21
2018-04-06T04:25:10.342Z,45.73
2018-04-06T04:26:10.300Z,45.73
2018-04-06T04:27:10.253Z,45.83
2018-04-06T04:28:10.219Z,46.31
2018-04-06T04:29:10.165Z,46.78
2018-04-06T04:30:10.126Z,46.11
2018-04-06T04:31:10.083Z,46.21
2018-04-06T04:32:10.042Z,46.01
2018-04-06T04:33:09.993Z,45.63
2018-04-06T04:34:09.954Z,45.92
2018-04-06T04:35:09.913Z,46.01
2018-04-06T04:36:09.868Z,46.01
2018-04-06T04:37:09.826Z,45.83
2018-04-06T04:38:09.778Z,45.73
2018-04-06T04:39:09.738Z,46.01
2018-04-06T04:40:09.699Z,46.78
2018-04-06T04:41:09.646Z,46.31
2018-04-06T04:42:09.603Z,46.88
2018-04-06T04:43:09.561Z,45.83
2018-04-06T04:44:09.521Z,46.01
2018-04-06T04:45:09.481Z,45.53
2018-04-06T04:46:09.439Z,45.73
2018-04-06T04:47:09.388Z,45.92
2018-04-06T04:48:09.348Z,45.83
2018-04-06T04:49:09.341Z,45.53
2018-04-06T04:50:09.266Z,45.83
2018-04-06T04:51:09.228Z,45.92
2018-04-06T04:52:09.175Z,45.83
2018-04-06T04:53:09.132Z,45.73
2018-04-06T04:54:09.091Z,45.92
2018-04-06T04:55:09.050Z,45.83
2018-04-06T04:56:09.003Z,45.53
2018-04-06T04:57:08.958Z,45.53
2018-04-06T04:58:08.914Z,45.92
2018-04-06T04:59:08.871Z,46.31
2018-04-06T05:00:08.829Z,46.31
2018-04-06T05:01:08.784Z,45.92
2018-04-06T05:02:08.741Z,46.01
2018-04-06T05:03:08.697Z,46.01
2018-04-06T05:04:08.672Z,45.73
2018-04-06T05:05:08.612Z,46.21
2018-04-06T05:06:08.568Z,45.83
2018-04-06T05:07:08.528Z,45.92
2018-04-06T05:08:08.484Z,46.31
2018-04-06T05:09:08.443Z,46.11
2018-04-06T05:10:08.400Z,46.21
2018-04-06T05:11:08.354Z,46.11
2018-04-06T05:12:08.311Z,46.50
2018-04-06T05:13:08.265Z,45.83
2018-04-06T05:14:08.225Z,46.01
2018-04-06T05:15:08.180Z,46.01
2018-04-06T05:16:08.140Z,46.40
2018-04-06T05:17:08.094Z,46.21
2018-04-06T05:18:08.053Z,46.59
2018-04-06T05:19:08.007Z,46.01
2018-04-06T05:20:07.973Z,45.83
2018-04-06T05:21:07.921Z,45.73
2018-04-06T05:22:07.875Z,45.44
2018-04-06T05:23:07.834Z,45.73
2018-04-06T05:24:07.792Z,45.53
2018-04-06T05:25:07.751Z,45.53
2018-04-06T05:26:07.713Z,45.83
2018-04-06T05:27:07.661Z,45.83
2018-04-06T05:28:07.620Z,45.63
2018-04-06T05:29:07.595Z,45.92
2018-04-06T05:30:07.549Z,45.63
2018-04-06T05:31:07.484Z,46.59
2018-04-06T05:32:07.447Z,45.73
2018-04-06T05:33:07.403Z,46.88
2018-04-06T05:34:07.362Z,46.11
2018-04-06T05:35:07.314Z,45.83
2018-04-06T05:36:07.267Z,45.92
2018-04-06T05:37:07.229Z,45.73
2018-04-06T05:38:07.186Z,45.83
2018-04-06T05:39:07.143Z,46.11
2018-04-06T05:40:07.102Z,46.01
2018-04-06T05:41:07.055Z,46.01
2018-04-06T05:42:07.068Z,46.11
2018-04-06T05:43:06.967Z,46.11
2018-04-06T05:44:06.928Z,45.73
2018-04-06T05:45:06.885Z,45.92
2018-04-06T05:46:06.840Z,45.83
2018-04-06T05:47:06.800Z,46.21
2018-04-06T05:48:06.755Z,45.92
2018-04-06T05:49:06.714Z,45.92
2018-04-06T05:50:06.669Z,46.01
2018-04-06T05:51:06.624Z,45.63
2018-04-06T05:52:06.582Z,45.53
2018-04-06T05:53:06.595Z,45.73
2018-04-06T05:54:06.500Z,45.53
2018-04-06T05:55:06.454Z,46.11
2018-04-06T05:56:06.405Z,45.83
2018-04-06T05:57:06.381Z,45.53
2018-04-06T05:58:06.324Z,45.53
2018-04-06T05:59:06.283Z,45.75
2018-04-06T06:00:06.254Z,46.21
2018-04-06T06:01:06.194Z,46.01
2018-04-06T06:02:06.156Z,46.21
2018-04-06T06:03:06.106Z,46.11
2018-04-06T06:04:06.064Z,46.11
2018-04-06T06:05:06.021Z,46.21
2018-04-06T06:06:05.980Z,46.31
2018-04-06T06:07:05.934Z,46.50
2018-04-06T06:08:05.893Z,46.50
2018-04-06T06:09:05.852Z,46.01
2018-04-06T06:10:05.806Z,46.01
2018-04-06T06:11:05.762Z,46.88
2018-04-06T06:12:05.718Z,46.42
2018-04-06T06:13:05.676Z,46.01
2018-04-06T06:14:05.633Z,46.78
2018-04-06T06:15:05.591Z,46.04
2018-04-06T06:16:05.547Z,45.83
2018-04-06T06:17:05.506Z,45.94
2018-04-06T06:18:05.458Z,45.63
2018-04-06T06:19:05.420Z,45.75
2018-04-06T06:20:05.375Z,45.53
2018-04-06T06:21:05.331Z,45.83
2018-04-06T06:22:05.290Z,45.92
2018-04-06T06:23:05.248Z,46.11
2018-04-06T06:24:05.201Z,46.21
2018-04-06T06:25:05.169Z,46.21
2018-04-06T06:26:05.122Z,46.33
2018-04-06T06:27:05.077Z,46.59
2018-04-06T06:28:05.038Z,46.71
2018-04-06T06:29:05.039Z,46.50
2018-04-06T06:30:04.968Z,46.59
2018-04-06T06:31:04.904Z,46.81
2018-04-06T06:32:04.862Z,46.62
2018-04-06T06:33:04.816Z,45.94
2018-04-06T06:34:04.772Z,46.01
2018-04-06T06:35:04.736Z,46.04
2018-04-06T06:36:04.688Z,46.23
2018-04-06T06:37:04.651Z,46.52
2018-04-06T06:38:04.599Z,46.62
2018-04-06T06:39:04.558Z,46.50
2018-04-06T06:40:04.534Z,46.14
2018-04-06T06:41:04.490Z,45.94
2018-04-06T06:42:04.431Z,46.81
2018-04-06T06:43:04.452Z,46.69
2018-04-06T06:44:04.345Z,46.71
2018-04-06T06:45:04.302Z,46.91
2018-04-06T06:46:04.260Z,47.00
2018-04-06T06:47:04.213Z,46.23
2018-04-06T06:48:04.168Z,46.62
2018-04-06T06:49:04.131Z,46.11
2018-04-06T06:50:04.087Z,46.33
2018-04-06T06:51:04.041Z,46.33
2018-04-06T06:52:03.999Z,46.91
2018-04-06T06:53:03.953Z,46.81
2018-04-06T06:54:03.916Z,46.14
2018-04-06T06:55:03.872Z,46.42
2018-04-06T06:56:03.862Z,46.71
2018-04-06T06:57:03.786Z,46.81
2018-04-06T06:58:03.740Z,46.91
2018-04-06T06:59:03.702Z,46.62
2018-04-06T07:00:03.676Z,46.62
2018-04-06T07:01:03.623Z,46.23
2018-04-06T07:02:03.574Z,46.91
2018-04-06T07:03:03.529Z,46.91
2018-04-06T07:04:03.522Z,46.42
2018-04-06T07:05:03.441Z,46.52
2018-04-06T07:06:03.418Z,46.62
2018-04-06T07:07:03.402Z,46.62
2018-04-06T07:08:03.321Z,46.62
2018-04-06T07:09:03.269Z,46.81
2018-04-06T07:10:03.229Z,46.71
2018-04-06T07:11:03.183Z,46.23
2018-04-06T07:12:03.141Z,46.23
2018-04-06T07:13:03.105Z,46.23
2018-04-06T07:14:03.085Z,46.23
2018-04-06T07:15:03.018Z,46.81
2018-04-06T07:16:03.038Z,46.81
2018-04-06T07:17:02.928Z,46.04
2018-04-06T07:18:02.887Z,46.23
2018-04-06T07:19:02.854Z,46.33
2018-04-06T07:20:02.801Z,45.94
2018-04-06T07:21:02.755Z,46.14
2018-04-06T07:22:02.712Z,46.14
2018-04-06T07:23:02.700Z,46.04
2018-04-06T07:24:02.628Z,46.14
2018-04-06T07:25:02.583Z,45.75
2018-04-06T07:26:02.543Z,45.75
2018-04-06T07:27:02.505Z,45.84
2018-04-06T07:28:02.454Z,45.84
2018-04-06T07:29:02.434Z,45.84
2018-04-06T07:30:02.375Z,45.94
2018-04-06T07:31:02.328Z,45.94
2018-04-06T07:32:02.287Z,45.94
2018-04-06T07:33:02.241Z,45.65
2018-04-06T07:34:02.201Z,45.75
2018-04-06T07:35:02.164Z,45.84
2018-04-06T07:36:02.122Z,45.56
2018-04-06T07:37:02.079Z,45.65
2018-04-06T07:38:02.035Z,45.75
2018-04-06T07:39:01.986Z,45.94
2018-04-06T07:40:01.945Z,45.84
2018-04-06T07:41:01.901Z,46.14
2018-04-06T07:42:01.856Z,45.75
2018-04-06T07:43:01.819Z,45.84
2018-04-06T07:44:01.769Z,45.94
2018-04-06T07:45:01.728Z,45.94
2018-04-06T07:46:01.687Z,45.75
2018-04-06T07:47:01.657Z,45.46
2018-04-06T07:48:01.599Z,45.56
2018-04-06T07:49:01.560Z,45.56
2018-04-06T07:50:01.513Z,45.56
2018-04-06T07:51:01.479Z,45.36
2018-04-06T07:52:01.432Z,45.46
2018-04-06T07:53:01.467Z,46.14
2018-04-06T07:54:01.341Z,45.36
2018-04-06T07:55:01.302Z,45.65
2018-04-06T07:56:01.259Z,45.56
2018-04-06T07:57:01.228Z,45.36
2018-04-06T07:58:01.172Z,45.56
2018-04-06T07:59:01.131Z,45.75
2018-04-06T08:00:01.088Z,45.27
2018-04-06T08:01:01.046Z,45.65
2018-04-06T08:02:01.005Z,45.36
2018-04-06T08:03:00.960Z,45.17
2018-04-06T08:04:00.917Z,45.65
2018-04-06T08:05:00.875Z,45.36
2018-04-06T08:06:00.915Z,45.46
2018-04-06T08:07:00.871Z,45.46
2018-04-06T08:08:00.748Z,45.36
2018-04-06T08:09:00.708Z,45.46
2018-04-06T08:10:00.665Z,45.94
2018-04-06T08:11:00.619Z,45.56
2018-04-06T08:12:00.577Z,45.56
2018-04-06T08:13:00.536Z,45.56
2018-04-06T08:14:00.494Z,45.56
2018-04-06T08:15:00.446Z,45.56
2018-04-06T08:16:00.404Z,45.46
2018-04-06T08:17:00.361Z,45.65
2018-04-06T08:18:00.319Z,45.46
2018-04-06T08:19:00.274Z,45.75
2018-04-06T08:20:00.229Z,45.84
2018-04-06T08:21:00.198Z,45.65
2018-04-06T08:22:00.148Z,45.56
2018-04-06T08:23:00.146Z,45.75
2018-04-06T08:24:00.076Z,45.46
2018-04-06T08:25:00.020Z,45.75
2018-04-06T08:25:59.982Z,46.04
2018-04-06T08:26:59.935Z,45.94
2018-04-06T08:27:59.894Z,45.94
2018-04-06T08:28:59.853Z,45.65
2018-04-06T08:29:59.813Z,45.94
2018-04-06T08:30:59.774Z,46.04
2018-04-06T08:31:59.722Z,46.04
2018-04-06T08:32:59.687Z,46.14
2018-04-06T08:33:59.634Z,46.04
2018-04-06T08:34:59.611Z,46.23
2018-04-06T08:35:59.575Z,46.04
2018-04-06T08:36:59.510Z,46.23
2018-04-06T08:37:59.471Z,46.14
2018-04-06T08:38:59.446Z,46.23
2018-04-06T08:39:59.387Z,46.23
2018-04-06T08:40:59.348Z,46.14
2018-04-06T08:41:59.358Z,46.23
2018-04-06T08:42:59.253Z,46.14
2018-04-06T08:43:59.219Z,46.04
2018-04-06T08:44:59.162Z,46.23
2018-04-06T08:45:59.128Z,46.14
2018-04-06T08:46:59.089Z,46.23
2018-04-06T08:47:59.043Z,46.23
2018-04-06T08:48:58.994Z,46.33
2018-04-06T08:49:58.958Z,46.04
2018-04-06T08:50:58.911Z,46.14
2018-04-06T08:51:58.869Z,45.94
2018-04-06T08:52:58.836Z,45.75
2018-04-06T08:53:58.807Z,45.84
2018-04-06T08:54:58.741Z,46.04
2018-04-06T08:55:58.710Z,45.84
2018-04-06T08:56:58.655Z,46.04
2018-04-06T08:57:58.612Z,45.94
2018-04-06T08:58:58.577Z,46.04
2018-04-06T08:59:58.525Z,45.94
2018-04-06T09:00:58.553Z,45.84
2018-04-06T09:01:58.468Z,45.84
2018-04-06T09:02:58.401Z,45.94
2018-04-06T09:03:58.362Z,45.84
2018-04-06T09:04:58.333Z,45.94
2018-04-06T09:05:58.270Z,46.23
2018-04-06T09:06:58.224Z,46.04
2018-04-06T09:07:58.197Z,46.14
2018-04-06T09:08:58.208Z,46.14
2018-04-06T09:09:58.102Z,45.75
2018-04-06T09:10:58.108Z,45.75
2018-04-06T09:11:58.034Z,45.94
2018-04-06T09:12:58.060Z,45.84
2018-04-06T09:13:57.935Z,45.84
2018-04-06T09:14:57.938Z,45.65
2018-04-06T09:15:57.913Z,45.65
2018-04-06T09:16:57.808Z,45.46
2018-04-06T09:17:57.942Z,45.56
2018-04-06T09:18:57.719Z,45.75
2018-04-06T09:19:57.680Z,45.75
2018-04-06T09:20:57.638Z,45.56
2018-04-06T09:21:57.593Z,45.56
2018-04-06T09:22:57.554Z,45.46
2018-04-06T09:23:57.500Z,45.56
2018-04-06T09:24:57.463Z,45.56
2018-04-06T09:25:57.415Z,45.56
2018-04-06T09:26:57.382Z,45.46
2018-04-06T09:27:57.331Z,45.46
2018-04-06T09:28:57.300Z,45.46
2018-04-06T09:29:57.245Z,45.46
2018-04-06T09:30:57.202Z,45.65
2018-04-06T09:31:57.161Z,45.46
2018-04-06T09:32:57.124Z,45.75
2018-04-06T09:33:57.074Z,45.56
2018-04-06T09:34:57.034Z,45.46
2018-04-06T09:35:56.990Z,45.46
2018-04-06T09:36:56.952Z,45.56
2018-04-06T09:37:56.903Z,45.56
2018-04-06T09:38:56.867Z,45.65
2018-04-06T09:39:56.832Z,45.65
2018-04-06T09:40:56.775Z,45.27
2018-04-06T09:41:56.745Z,45.65
2018-04-06T09:42:56.690Z,45.36
2018-04-06T09:43:56.662Z,45.56
2018-04-06T09:44:56.608Z,45.65
2018-04-06T09:45:56.566Z,45.17
2018-04-06T09:46:56.525Z,45.94
2018-04-06T09:47:56.511Z,45.27
2018-04-06T09:48:56.438Z,45.27
2018-04-06T09:49:56.392Z,45.65
2018-04-06T09:50:56.345Z,45.36
2018-04-06T09:51:56.302Z,45.27
2018-04-06T09:52:56.267Z,45.27
2018-04-06T09:53:56.229Z,45.36
2018-04-06T09:54:56.183Z,45.27
2018-04-06T09:55:56.140Z,45.36
2018-04-06T09:56:56.096Z,45.27
2018-04-06T09:57:56.066Z,44.89
2018-04-06T09:58:56.011Z,45.36
2018-04-06T09:59:55.968Z,44.89
2018-04-06T10:00:55.918Z,44.89
2018-04-06T10:01:55.886Z,44.69
2018-04-06T10:02:55.854Z,44.98
2018-04-06T10:03:55.803Z,44.79
2018-04-06T10:04:55.750Z,44.98
2018-04-06T10:05:55.715Z,44.98
2018-04-06T10:06:55.663Z,44.89
2018-04-06T10:07:55.627Z,44.79
2018-04-06T10:08:55.584Z,44.69
2018-04-06T10:09:55.535Z,44.69
2018-04-06T10:10:55.500Z,44.59
2018-04-06T10:11:55.454Z,44.69
2018-04-06T10:12:55.418Z,45.07
2018-04-06T10:13:55.368Z,45.07
2018-04-06T10:14:55.335Z,44.98
2018-04-06T10:15:55.276Z,44.89
2018-04-06T10:16:55.259Z,44.79
2018-04-06T10:17:55.192Z,44.59
2018-04-06T10:18:55.158Z,44.59
2018-04-06T10:19:55.107Z,44.79
2018-04-06T10:20:55.068Z,44.79
2018-04-06T10:21:55.042Z,44.59
2018-04-06T10:22:54.995Z,44.69
2018-04-06T10:23:54.939Z,44.79
2018-04-06T10:24:54.909Z,44.89
2018-04-06T10:25:54.851Z,44.69
2018-04-06T10:26:54.810Z,44.69
2018-04-06T10:27:54.773Z,44.69
2018-04-06T10:28:54.728Z,44.79
2018-04-06T10:29:54.680Z,44.98
2018-04-06T10:30:54.637Z,44.89
2018-04-06T10:31:54.593Z,44.69
2018-04-06T10:32:54.557Z,44.49
2018-04-06T10:33:54.507Z,44.49
2018-04-06T10:34:54.463Z,44.79
2018-04-06T10:35:54.428Z,44.59
2018-04-06T10:36:54.388Z,44.98
2018-04-06T10:37:54.341Z,44.59
2018-04-06T10:38:54.294Z,44.79
2018-04-06T10:39:54.250Z,44.79
2018-04-06T10:40:54.206Z,44.79
2018-04-06T10:41:54.164Z,45.17
2018-04-06T10:42:54.130Z,44.69
2018-04-06T10:43:54.082Z,44.79
2018-04-06T10:44:54.041Z,44.59
2018-04-06T10:45:54.018Z,44.69
2018-04-06T10:46:53.953Z,44.21
2018-04-06T10:47:53.914Z,44.49
2018-04-06T10:48:53.869Z,44.79
2018-04-06T10:49:53.842Z,44.31
2018-04-06T10:50:53.788Z,44.31
2018-04-06T10:51:53.749Z,44.40
2018-04-06T10:52:53.698Z,44.69
2018-04-06T10:53:53.655Z,44.40
2018-04-06T10:54:53.608Z,44.79
2018-04-06T10:55:53.568Z,44.40
2018-04-06T10:56:53.524Z,44.49
2018-04-06T10:57:53.483Z,44.49
2018-04-06T10:58:53.437Z,44.40
2018-04-06T10:59:53.397Z,44.21
2018-04-06T11:00:53.349Z,44.11
2018-04-06T11:01:53.310Z,44.40
2018-04-06T11:02:53.272Z,44.11
2018-04-06T11:03:53.222Z,44.40
2018-04-06T11:04:53.182Z,44.59
2018-04-06T11:05:53.135Z,44.59
2018-04-06T11:06:53.095Z,44.31
2018-04-06T11:07:53.066Z,44.59
2018-04-06T11:08:53.009Z,44.02
2018-04-06T11:09:52.970Z,43.92
2018-04-06T11:10:52.921Z,44.49
2018-04-06T11:11:52.882Z,43.92
2018-04-06T11:12:52.835Z,44.31
2018-04-06T11:13:52.793Z,44.40
2018-04-06T11:14:52.750Z,44.48
2018-04-06T11:15:52.717Z,44.49
2018-04-06T11:16:52.663Z,44.49
2018-04-06T11:17:52.622Z,44.49
2018-04-06T11:18:52.600Z,44.59
2018-04-06T11:19:52.541Z,44.21
2018-04-06T11:20:52.495Z,43.92
2018-04-06T11:21:52.450Z,43.82
2018-04-06T11:22:52.414Z,43.82
2018-04-06T11:23:52.366Z,44.21
2018-04-06T11:24:52.325Z,44.02
2018-04-06T11:25:52.281Z,43.82
2018-04-06T11:26:52.242Z,44.31
2018-04-06T11:27:52.201Z,44.11
2018-04-06T11:28:52.161Z,44.21
2018-04-06T11:29:52.111Z,44.21
2018-04-06T11:30:52.070Z,44.21
2018-04-06T11:31:52.024Z,44.48
2018-04-06T11:32:51.982Z,44.40
2018-04-06T11:33:51.937Z,44.38
2018-04-06T11:34:51.896Z,43.90
2018-04-06T11:35:51.849Z,44.49
2018-04-06T11:36:51.809Z,44.40
2018-04-06T11:37:51.768Z,44.69
2018-04-06T11:38:51.718Z,43.92
2018-04-06T11:39:51.674Z,43.82
2018-04-06T11:40:51.645Z,43.82
2018-04-06T11:41:51.594Z,44.40
2018-04-06T11:42:51.560Z,44.38
2018-04-06T11:43:51.504Z,44.31
2018-04-06T11:44:51.472Z,44.40
2018-04-06T11:45:51.424Z,44.49
2018-04-06T11:46:51.383Z,43.80
2018-04-06T11:47:51.335Z,43.82
2018-04-06T11:48:51.293Z,44.31
2018-04-06T11:49:51.252Z,43.92
2018-04-06T11:50:51.207Z,44.48
2018-04-06T11:51:51.160Z,44.02
2018-04-06T11:52:51.120Z,44.11
2018-04-06T11:53:51.086Z,44.02
2018-04-06T11:54:51.050Z,43.82
2018-04-06T11:55:50.998Z,44.31
2018-04-06T11:56:50.956Z,44.21
2018-04-06T11:57:50.905Z,43.82
2018-04-06T11:58:50.894Z,44.02
2018-04-06T11:59:50.872Z,44.31
2018-04-06T12:00:50.776Z,44.31
2018-04-06T12:01:50.734Z,43.92
2018-04-06T12:02:50.690Z,44.11
2018-04-06T12:03:50.652Z,44.09
2018-04-06T12:04:50.603Z,44.21
2018-04-06T12:05:50.564Z,44.40
2018-04-06T12:06:50.518Z,44.38
2018-04-06T12:07:50.514Z,44.21
2018-04-06T12:08:50.435Z,44.19
2018-04-06T12:09:50.396Z,43.92
2018-04-06T12:10:50.351Z,44.21
2018-04-06T12:11:50.304Z,44.38
2018-04-06T12:12:50.259Z,43.71
2018-04-06T12:13:50.217Z,44.21
2018-04-06T12:14:50.175Z,44.31
2018-04-06T12:15:50.144Z,44.31
2018-04-06T12:16:50.091Z,44.31
2018-04-06T12:17:50.053Z,44.19
2018-04-06T12:18:50.004Z,43.73
2018-04-06T12:19:49.968Z,43.61
2018-04-06T12:20:49.919Z,43.63
2018-04-06T12:21:49.878Z,43.63
2018-04-06T12:22:49.831Z,44.02
2018-04-06T12:23:49.801Z,43.71
2018-04-06T12:24:49.748Z,43.61
2018-04-06T12:25:49.704Z,43.73
2018-04-06T12:26:49.677Z,43.82
2018-04-06T12:27:49.663Z,43.71
2018-04-06T12:28:49.579Z,43.90
2018-04-06T12:29:49.546Z,43.73
2018-04-06T12:30:49.493Z,43.71
2018-04-06T12:31:49.450Z,43.80
2018-04-06T12:32:49.406Z,44.02
2018-04-06T12:33:49.361Z,43.51
2018-04-06T12:34:49.325Z,43.61
2018-04-06T12:35:49.276Z,43.71
2018-04-06T12:36:49.235Z,43.61
2018-04-06T12:37:49.198Z,43.63
2018-04-06T12:38:49.146Z,43.71
2018-04-06T12:39:49.103Z,43.63
2018-04-06T12:40:49.059Z,43.71
2018-04-06T12:41:49.019Z,43.61
2018-04-06T12:42:48.973Z,43.61
2018-04-06T12:43:48.931Z,43.63
2018-04-06T12:44:48.888Z,43.71
2018-04-06T12:45:48.847Z,43.63
2018-04-06T12:46:48.799Z,43.34
2018-04-06T12:47:48.761Z,43.54
2018-04-06T12:48:48.729Z,43.71
2018-04-06T12:49:48.673Z,43.54
2018-04-06T12:50:48.642Z,43.80
2018-04-06T12:51:48.598Z,43.82
2018-04-06T12:52:48.551Z,43.23
2018-04-06T12:53:48.501Z,43.41
2018-04-06T12:54:48.466Z,43.32
2018-04-06T12:55:48.461Z,43.32
2018-04-06T12:56:48.389Z,43.51
2018-04-06T12:57:48.348Z,43.71
2018-04-06T12:58:48.288Z,43.82
2018-04-06T12:59:48.256Z,43.61
2018-04-06T13:00:48.201Z,43.73
2018-04-06T13:01:48.160Z,43.32
2018-04-06T13:02:48.118Z,43.51
2018-04-06T13:03:48.091Z,43.24
2018-04-06T13:04:48.034Z,43.13
2018-04-06T13:05:47.992Z,43.41
2018-04-06T13:06:47.948Z,43.51
2018-04-06T13:07:47.903Z,43.34
2018-04-06T13:08:47.860Z,43.51
2018-04-06T13:09:47.822Z,43.41
2018-04-06T13:10:47.773Z,43.32
2018-04-06T13:11:47.726Z,43.41
2018-04-06T13:12:47.691Z,43.44
2018-04-06T13:13:47.641Z,43.51
2018-04-06T13:14:47.602Z,43.51
2018-04-06T13:15:47.553Z,43.34
2018-04-06T13:16:47.514Z,43.44
2018-04-06T13:17:47.470Z,43.41
2018-04-06T13:18:47.429Z,43.54
2018-04-06T13:19:47.388Z,43.61
2018-04-06T13:20:47.341Z,43.51
2018-04-06T13:21:47.300Z,43.34
2018-04-06T13:22:47.257Z,43.32
2018-04-06T13:23:47.211Z,43.23
2018-04-06T13:24:47.166Z,43.13
2018-04-06T13:25:47.131Z,43.23